sensor_id;sensor_type;location;lat;lon;timestamp;temperature;humidity
18906;DHT22;9585;51.018;4.282;2023-04-29T00:02:20;10.00;99.90
18906;DHT22;9585;51.018;4.282;2023-04-29T00:04:50;10.10;99.90
18906;DHT22;9585;51.018;4.282;2023-04-29T00:07:17;10.20;99.90
18906;DHT22;9585;51.018;4.282;2023-04-29T00:09:45;10.10;99.90
18906;DHT22;9585;51.018;4.282;2023-04-29T00:12:15;10.10;99.90
18906;DHT22;9585;51.018;4.282;2023-04-29T00:14:44;9.90;99.90
18906;DHT22;9585;51.018;4.282;2023-04-29T00:17:14;9.90;99.90
18906;DHT22;9585;51.018;4.282;2023-04-29T00:19:48;9.90;99.90
18906;DHT22;9585;51.018;4.282;2023-04-29T00:22:17;9.80;99.90
18906;DHT22;9585;51.018;4.282;2023-04-29T00:24:45;9.90;99.90
18906;DHT22;9585;51.018;4.282;2023-04-29T00:27:18;9.80;99.90
18906;DHT22;9585;51.018;4.282;2023-04-29T00:29:49;9.80;99.90
18906;DHT22;9585;51.018;4.282;2023-04-29T00:32:20;9.80;99.90
18906;DHT22;9585;51.018;4.282;2023-04-29T00:34:48;9.80;99.90
18906;DHT22;9585;51.018;4.282;2023-04-29T00:37:16;9.80;99.90
18906;DHT22;9585;51.018;4.282;2023-04-29T00:39:43;9.70;99.90
18906;DHT22;9585;51.018;4.282;2023-04-29T00:42:11;9.70;99.90
18906;DHT22;9585;51.018;4.282;2023-04-29T00:44:40;9.70;99.90
18906;DHT22;9585;51.018;4.282;2023-04-29T00:47:07;9.80;99.90
18906;DHT22;9585;51.018;4.282;2023-04-29T00:49:37;9.80;99.90
18906;DHT22;9585;51.018;4.282;2023-04-29T00:52:05;9.60;99.90
18906;DHT22;9585;51.018;4.282;2023-04-29T00:54:41;9.60;99.90
18906;DHT22;9585;51.018;4.282;2023-04-29T00:57:10;9.60;99.90
18906;DHT22;9585;51.018;4.282;2023-04-29T00:59:42;9.60;99.90
18906;DHT22;9585;51.018;4.282;2023-04-29T01:02:10;9.70;99.90
18906;DHT22;9585;51.018;4.282;2023-04-29T01:04:40;9.60;99.90
18906;DHT22;9585;51.018;4.282;2023-04-29T01:07:14;9.60;99.90
18906;DHT22;9585;51.018;4.282;2023-04-29T01:10:02;9.60;99.90
18906;DHT22;9585;51.018;4.282;2023-04-29T01:12:34;9.60;99.90
18906;DHT22;9585;51.018;4.282;2023-04-29T01:15:11;9.50;99.90
18906;DHT22;9585;51.018;4.282;2023-04-29T01:17:49;9.50;99.90
18906;DHT22;9585;51.018;4.282;2023-04-29T01:20:18;9.50;99.90
18906;DHT22;9585;51.018;4.282;2023-04-29T01:22:47;9.50;99.90
18906;DHT22;9585;51.018;4.282;2023-04-29T01:25:18;9.50;99.90
18906;DHT22;9585;51.018;4.282;2023-04-29T01:27:54;9.40;99.90
18906;DHT22;9585;51.018;4.282;2023-04-29T01:30:30;9.40;99.90
18906;DHT22;9585;51.018;4.282;2023-04-29T01:33:05;9.30;99.90
18906;DHT22;9585;51.018;4.282;2023-04-29T01:35:43;9.40;99.90
18906;DHT22;9585;51.018;4.282;2023-04-29T01:38:16;9.40;99.90
18906;DHT22;9585;51.018;4.282;2023-04-29T01:40:58;9.40;99.90
18906;DHT22;9585;51.018;4.282;2023-04-29T01:43:29;9.30;99.90
18906;DHT22;9585;51.018;4.282;2023-04-29T01:45:59;9.30;99.90
18906;DHT22;9585;51.018;4.282;2023-04-29T01:48:30;9.30;99.90
18906;DHT22;9585;51.018;4.282;2023-04-29T01:50:58;9.20;99.90
18906;DHT22;9585;51.018;4.282;2023-04-29T01:53:26;9.10;99.90
18906;DHT22;9585;51.018;4.282;2023-04-29T01:55:56;9.10;99.90
18906;DHT22;9585;51.018;4.282;2023-04-29T01:58:24;9.10;99.90
18906;DHT22;9585;51.018;4.282;2023-04-29T02:00:51;9.20;99.90
18906;DHT22;9585;51.018;4.282;2023-04-29T02:03:19;9.10;99.90
18906;DHT22;9585;51.018;4.282;2023-04-29T02:05:49;9.20;99.90
18906;DHT22;9585;51.018;4.282;2023-04-29T02:08:17;9.30;99.90
18906;DHT22;9585;51.018;4.282;2023-04-29T02:10:58;9.20;99.90
18906;DHT22;9585;51.018;4.282;2023-04-29T02:13:29;9.10;99.90
18906;DHT22;9585;51.018;4.282;2023-04-29T02:15:56;9.10;99.90
18906;DHT22;9585;51.018;4.282;2023-04-29T02:18:24;9.10;99.90
18906;DHT22;9585;51.018;4.282;2023-04-29T02:20:59;9.10;99.90
18906;DHT22;9585;51.018;4.282;2023-04-29T02:23:27;9.20;99.90
18906;DHT22;9585;51.018;4.282;2023-04-29T02:25:56;9.10;99.90
18906;DHT22;9585;51.018;4.282;2023-04-29T02:28:31;9.10;99.90
18906;DHT22;9585;51.018;4.282;2023-04-29T02:30:59;9.10;99.90
18906;DHT22;9585;51.018;4.282;2023-04-29T02:33:27;9.10;99.90
18906;DHT22;9585;51.018;4.282;2023-04-29T02:35:55;9.20;99.90
18906;DHT22;9585;51.018;4.282;2023-04-29T02:38:30;9.10;99.90
18906;DHT22;9585;51.018;4.282;2023-04-29T02:40:58;9.10;99.90
18906;DHT22;9585;51.018;4.282;2023-04-29T02:43:31;9.10;99.90
18906;DHT22;9585;51.018;4.282;2023-04-29T02:45:58;9.00;99.90
18906;DHT22;9585;51.018;4.282;2023-04-29T02:48:26;8.90;99.90
18906;DHT22;9585;51.018;4.282;2023-04-29T02:51:01;8.80;99.90
18906;DHT22;9585;51.018;4.282;2023-04-29T02:53:29;8.80;99.90
18906;DHT22;9585;51.018;4.282;2023-04-29T02:55:59;8.90;99.90
18906;DHT22;9585;51.018;4.282;2023-04-29T02:58:26;9.00;99.90
18906;DHT22;9585;51.018;4.282;2023-04-29T03:00:55;9.00;99.90
18906;DHT22;9585;51.018;4.282;2023-04-29T03:03:23;9.00;99.90
18906;DHT22;9585;51.018;4.282;2023-04-29T03:05:51;9.00;99.90
18906;DHT22;9585;51.018;4.282;2023-04-29T03:08:25;9.10;99.90
18906;DHT22;9585;51.018;4.282;2023-04-29T03:10:55;9.00;99.90
18906;DHT22;9585;51.018;4.282;2023-04-29T03:13:28;9.10;99.90
18906;DHT22;9585;51.018;4.282;2023-04-29T03:16:08;9.10;99.90
18906;DHT22;9585;51.018;4.282;2023-04-29T03:18:39;9.00;99.90
18906;DHT22;9585;51.018;4.282;2023-04-29T03:21:07;9.00;99.90
18906;DHT22;9585;51.018;4.282;2023-04-29T03:23:34;9.00;99.90
18906;DHT22;9585;51.018;4.282;2023-04-29T03:26:04;8.90;99.90
18906;DHT22;9585;51.018;4.282;2023-04-29T03:28:34;8.90;99.90
18906;DHT22;9585;51.018;4.282;2023-04-29T03:31:03;8.90;99.90
18906;DHT22;9585;51.018;4.282;2023-04-29T03:33:32;8.90;99.90
18906;DHT22;9585;51.018;4.282;2023-04-29T03:36:00;8.90;99.90
18906;DHT22;9585;51.018;4.282;2023-04-29T03:38:28;9.00;99.90
18906;DHT22;9585;51.018;4.282;2023-04-29T03:40:59;8.90;99.90
18906;DHT22;9585;51.018;4.282;2023-04-29T03:43:26;9.00;99.90
18906;DHT22;9585;51.018;4.282;2023-04-29T03:45:54;9.00;99.90
18906;DHT22;9585;51.018;4.282;2023-04-29T03:48:22;9.00;99.90
18906;DHT22;9585;51.018;4.282;2023-04-29T03:50:54;8.90;99.90
18906;DHT22;9585;51.018;4.282;2023-04-29T03:53:27;8.80;99.90
18906;DHT22;9585;51.018;4.282;2023-04-29T03:55:55;8.80;99.90
18906;DHT22;9585;51.018;4.282;2023-04-29T03:58:28;8.80;99.90
18906;DHT22;9585;51.018;4.282;2023-04-29T04:01:03;8.80;99.90
18906;DHT22;9585;51.018;4.282;2023-04-29T04:03:34;8.80;99.90
18906;DHT22;9585;51.018;4.282;2023-04-29T04:06:03;8.80;99.90
18906;DHT22;9585;51.018;4.282;2023-04-29T04:08:31;8.80;99.90
18906;DHT22;9585;51.018;4.282;2023-04-29T04:10:59;8.80;99.90
18906;DHT22;9585;51.018;4.282;2023-04-29T04:13:31;8.80;99.90
18906;DHT22;9585;51.018;4.282;2023-04-29T04:16:04;8.80;99.90
18906;DHT22;9585;51.018;4.282;2023-04-29T04:18:35;8.70;99.90
18906;DHT22;9585;51.018;4.282;2023-04-29T04:21:08;8.60;99.90
18906;DHT22;9585;51.018;4.282;2023-04-29T04:23:41;8.50;99.90
18906;DHT22;9585;51.018;4.282;2023-04-29T04:26:09;8.50;99.90
18906;DHT22;9585;51.018;4.282;2023-04-29T04:28:46;8.60;99.90
18906;DHT22;9585;51.018;4.282;2023-04-29T04:31:14;8.50;99.90
18906;DHT22;9585;51.018;4.282;2023-04-29T04:33:41;8.60;99.90
18906;DHT22;9585;51.018;4.282;2023-04-29T04:36:11;8.60;99.90
18906;DHT22;9585;51.018;4.282;2023-04-29T04:38:38;8.60;99.90
18906;DHT22;9585;51.018;4.282;2023-04-29T04:41:06;8.60;99.90
18906;DHT22;9585;51.018;4.282;2023-04-29T04:43:34;8.60;99.90
18906;DHT22;9585;51.018;4.282;2023-04-29T04:46:09;8.60;99.90
18906;DHT22;9585;51.018;4.282;2023-04-29T04:48:39;8.60;99.90
18906;DHT22;9585;51.018;4.282;2023-04-29T04:51:12;8.70;99.90
18906;DHT22;9585;51.018;4.282;2023-04-29T04:53:40;8.70;99.90
18906;DHT22;9585;51.018;4.282;2023-04-29T04:56:08;8.60;99.90
18906;DHT22;9585;51.018;4.282;2023-04-29T04:58:35;8.60;99.90
18906;DHT22;9585;51.018;4.282;2023-04-29T05:01:03;8.70;99.90
18906;DHT22;9585;51.018;4.282;2023-04-29T05:03:30;8.60;99.90
18906;DHT22;9585;51.018;4.282;2023-04-29T05:06:00;8.60;99.90
18906;DHT22;9585;51.018;4.282;2023-04-29T05:08:31;8.70;99.90
18906;DHT22;9585;51.018;4.282;2023-04-29T05:11:03;8.70;99.90
18906;DHT22;9585;51.018;4.282;2023-04-29T05:13:32;8.80;99.90
18906;DHT22;9585;51.018;4.282;2023-04-29T05:16:02;8.80;99.90
18906;DHT22;9585;51.018;4.282;2023-04-29T05:18:38;8.90;99.90
18906;DHT22;9585;51.018;4.282;2023-04-29T05:21:08;8.90;99.90
18906;DHT22;9585;51.018;4.282;2023-04-29T05:23:37;8.90;99.90
18906;DHT22;9585;51.018;4.282;2023-04-29T05:26:23;8.80;99.90
18906;DHT22;9585;51.018;4.282;2023-04-29T05:28:51;8.80;99.90
18906;DHT22;9585;51.018;4.282;2023-04-29T05:31:20;8.80;99.90
18906;DHT22;9585;51.018;4.282;2023-04-29T05:33:47;8.80;99.90
18906;DHT22;9585;51.018;4.282;2023-04-29T05:36:16;8.80;99.90
18906;DHT22;9585;51.018;4.282;2023-04-29T05:38:59;8.70;99.90
18906;DHT22;9585;51.018;4.282;2023-04-29T05:41:34;8.80;99.90
18906;DHT22;9585;51.018;4.282;2023-04-29T05:44:02;8.70;99.90
18906;DHT22;9585;51.018;4.282;2023-04-29T05:46:31;8.60;99.90
18906;DHT22;9585;51.018;4.282;2023-04-29T05:48:59;8.60;99.90
18906;DHT22;9585;51.018;4.282;2023-04-29T05:51:30;8.50;99.90
18906;DHT22;9585;51.018;4.282;2023-04-29T05:54:05;8.50;99.90
18906;DHT22;9585;51.018;4.282;2023-04-29T05:56:32;8.50;99.90
18906;DHT22;9585;51.018;4.282;2023-04-29T05:59:00;8.60;99.90
18906;DHT22;9585;51.018;4.282;2023-04-29T06:01:28;8.60;99.90
18906;DHT22;9585;51.018;4.282;2023-04-29T06:03:56;8.50;99.90
18906;DHT22;9585;51.018;4.282;2023-04-29T06:06:26;8.50;99.90
18906;DHT22;9585;51.018;4.282;2023-04-29T06:08:58;8.60;99.90
18906;DHT22;9585;51.018;4.282;2023-04-29T06:11:28;8.50;99.90
18906;DHT22;9585;51.018;4.282;2023-04-29T06:14:00;8.60;99.90
18906;DHT22;9585;51.018;4.282;2023-04-29T06:16:31;8.60;99.90
18906;DHT22;9585;51.018;4.282;2023-04-29T06:19:02;8.50;99.90
18906;DHT22;9585;51.018;4.282;2023-04-29T06:21:30;8.60;99.90
18906;DHT22;9585;51.018;4.282;2023-04-29T06:23:57;8.60;99.90
18906;DHT22;9585;51.018;4.282;2023-04-29T06:26:27;8.60;99.90
18906;DHT22;9585;51.018;4.282;2023-04-29T06:28:55;8.60;99.90
18906;DHT22;9585;51.018;4.282;2023-04-29T06:31:23;8.70;99.90
18906;DHT22;9585;51.018;4.282;2023-04-29T06:33:50;8.70;99.90
18906;DHT22;9585;51.018;4.282;2023-04-29T06:36:18;8.70;99.90
18906;DHT22;9585;51.018;4.282;2023-04-29T06:38:46;8.80;99.90
18906;DHT22;9585;51.018;4.282;2023-04-29T06:41:13;8.80;99.90
18906;DHT22;9585;51.018;4.282;2023-04-29T06:43:43;8.80;99.90
18906;DHT22;9585;51.018;4.282;2023-04-29T06:46:11;8.90;99.90
18906;DHT22;9585;51.018;4.282;2023-04-29T06:48:39;9.00;99.90
18906;DHT22;9585;51.018;4.282;2023-04-29T06:51:06;9.00;99.90
18906;DHT22;9585;51.018;4.282;2023-04-29T06:53:34;9.10;99.90
18906;DHT22;9585;51.018;4.282;2023-04-29T06:56:05;9.00;99.90
18906;DHT22;9585;51.018;4.282;2023-04-29T06:58:36;9.10;99.90
18906;DHT22;9585;51.018;4.282;2023-04-29T07:01:24;9.10;99.90
18906;DHT22;9585;51.018;4.282;2023-04-29T07:03:52;9.10;99.90
18906;DHT22;9585;51.018;4.282;2023-04-29T07:06:24;9.10;99.90
18906;DHT22;9585;51.018;4.282;2023-04-29T07:08:57;9.20;99.90
18906;DHT22;9585;51.018;4.282;2023-04-29T07:11:26;9.20;99.90
18906;DHT22;9585;51.018;4.282;2023-04-29T07:13:54;9.20;99.90
18906;DHT22;9585;51.018;4.282;2023-04-29T07:16:23;9.30;99.90
18906;DHT22;9585;51.018;4.282;2023-04-29T07:18:55;9.30;99.90
18906;DHT22;9585;51.018;4.282;2023-04-29T07:21:28;9.30;99.90
18906;DHT22;9585;51.018;4.282;2023-04-29T07:24:00;9.30;99.90
18906;DHT22;9585;51.018;4.282;2023-04-29T07:26:32;9.30;99.90
18906;DHT22;9585;51.018;4.282;2023-04-29T07:28:59;9.30;99.90
18906;DHT22;9585;51.018;4.282;2023-04-29T07:31:29;9.30;99.90
18906;DHT22;9585;51.018;4.282;2023-04-29T07:33:56;9.30;99.90
18906;DHT22;9585;51.018;4.282;2023-04-29T07:36:24;9.40;99.90
18906;DHT22;9585;51.018;4.282;2023-04-29T07:38:53;9.40;99.90
18906;DHT22;9585;51.018;4.282;2023-04-29T07:41:24;9.50;99.90
18906;DHT22;9585;51.018;4.282;2023-04-29T07:43:55;9.60;99.90
18906;DHT22;9585;51.018;4.282;2023-04-29T07:46:22;9.60;99.90
18906;DHT22;9585;51.018;4.282;2023-04-29T07:48:51;9.70;99.90
18906;DHT22;9585;51.018;4.282;2023-04-29T07:51:19;9.80;99.90
18906;DHT22;9585;51.018;4.282;2023-04-29T07:53:46;10.00;99.90
18906;DHT22;9585;51.018;4.282;2023-04-29T07:56:17;10.20;99.90
18906;DHT22;9585;51.018;4.282;2023-04-29T07:58:45;10.30;99.90
18906;DHT22;9585;51.018;4.282;2023-04-29T08:01:13;10.50;99.90
18906;DHT22;9585;51.018;4.282;2023-04-29T08:03:43;10.60;99.90
18906;DHT22;9585;51.018;4.282;2023-04-29T08:06:12;10.70;99.90
18906;DHT22;9585;51.018;4.282;2023-04-29T08:08:40;10.80;99.90
18906;DHT22;9585;51.018;4.282;2023-04-29T08:11:15;10.90;99.90
18906;DHT22;9585;51.018;4.282;2023-04-29T08:13:49;11.10;99.90
18906;DHT22;9585;51.018;4.282;2023-04-29T08:16:17;11.30;99.90
18906;DHT22;9585;51.018;4.282;2023-04-29T08:18:44;11.40;99.90
18906;DHT22;9585;51.018;4.282;2023-04-29T08:21:14;11.40;99.90
18906;DHT22;9585;51.018;4.282;2023-04-29T08:23:44;11.50;99.90
18906;DHT22;9585;51.018;4.282;2023-04-29T08:26:11;11.60;99.90
18906;DHT22;9585;51.018;4.282;2023-04-29T08:28:39;11.50;99.90
18906;DHT22;9585;51.018;4.282;2023-04-29T08:31:07;11.50;99.90
18906;DHT22;9585;51.018;4.282;2023-04-29T08:33:45;11.50;99.90
18906;DHT22;9585;51.018;4.282;2023-04-29T08:36:23;11.60;99.90
18906;DHT22;9585;51.018;4.282;2023-04-29T08:38:53;11.80;99.90
18906;DHT22;9585;51.018;4.282;2023-04-29T08:41:24;12.00;99.90
18906;DHT22;9585;51.018;4.282;2023-04-29T08:43:51;12.20;99.90
18906;DHT22;9585;51.018;4.282;2023-04-29T08:46:23;12.20;99.90
18906;DHT22;9585;51.018;4.282;2023-04-29T08:48:54;12.40;99.90
18906;DHT22;9585;51.018;4.282;2023-04-29T08:51:24;12.50;99.90
18906;DHT22;9585;51.018;4.282;2023-04-29T08:54:17;12.60;99.90
18906;DHT22;9585;51.018;4.282;2023-04-29T08:56:48;12.60;99.90
18906;DHT22;9585;51.018;4.282;2023-04-29T08:59:19;12.60;99.90
18906;DHT22;9585;51.018;4.282;2023-04-29T09:01:48;12.70;99.90
18906;DHT22;9585;51.018;4.282;2023-04-29T09:04:28;12.60;99.90
18906;DHT22;9585;51.018;4.282;2023-04-29T09:06:58;12.50;99.90
18906;DHT22;9585;51.018;4.282;2023-04-29T09:09:27;12.60;99.90
18906;DHT22;9585;51.018;4.282;2023-04-29T09:12:03;12.50;99.90
18906;DHT22;9585;51.018;4.282;2023-04-29T09:18:07;12.70;99.90
18906;DHT22;9585;51.018;4.282;2023-04-29T09:20:40;12.90;99.90
18906;DHT22;9585;51.018;4.282;2023-04-29T09:24:19;13.10;99.90
18906;DHT22;9585;51.018;4.282;2023-04-29T09:27:26;13.50;99.90
18906;DHT22;9585;51.018;4.282;2023-04-29T09:30:00;13.70;99.90
18906;DHT22;9585;51.018;4.282;2023-04-29T09:32:33;13.60;99.90
18906;DHT22;9585;51.018;4.282;2023-04-29T09:35:21;13.60;99.90
18906;DHT22;9585;51.018;4.282;2023-04-29T09:37:49;13.40;99.90
18906;DHT22;9585;51.018;4.282;2023-04-29T09:40:33;13.20;99.90
18906;DHT22;9585;51.018;4.282;2023-04-29T09:43:17;13.10;99.90
18906;DHT22;9585;51.018;4.282;2023-04-29T09:45:57;13.20;99.90
18906;DHT22;9585;51.018;4.282;2023-04-29T09:48:32;13.30;99.90
18906;DHT22;9585;51.018;4.282;2023-04-29T09:51:01;13.60;99.90
18906;DHT22;9585;51.018;4.282;2023-04-29T09:53:29;13.70;99.90
18906;DHT22;9585;51.018;4.282;2023-04-29T09:56:00;14.10;99.90
18906;DHT22;9585;51.018;4.282;2023-04-29T09:59:13;14.20;99.90
18906;DHT22;9585;51.018;4.282;2023-04-29T10:01:41;14.50;99.90
18906;DHT22;9585;51.018;4.282;2023-04-29T10:04:13;14.90;99.90
18906;DHT22;9585;51.018;4.282;2023-04-29T10:06:43;15.10;99.90
18906;DHT22;9585;51.018;4.282;2023-04-29T10:09:16;14.60;99.90
18906;DHT22;9585;51.018;4.282;2023-04-29T10:11:49;14.50;99.90
18906;DHT22;9585;51.018;4.282;2023-04-29T10:14:19;14.40;99.90
18906;DHT22;9585;51.018;4.282;2023-04-29T10:17:10;14.10;99.90
18906;DHT22;9585;51.018;4.282;2023-04-29T10:19:50;13.90;99.90
18906;DHT22;9585;51.018;4.282;2023-04-29T10:22:32;13.70;99.90
18906;DHT22;9585;51.018;4.282;2023-04-29T10:25:22;13.60;99.90
18906;DHT22;9585;51.018;4.282;2023-04-29T10:28:06;13.80;99.90
18906;DHT22;9585;51.018;4.282;2023-04-29T10:30:36;13.90;99.90
18906;DHT22;9585;51.018;4.282;2023-04-29T10:33:05;14.20;99.90
18906;DHT22;9585;51.018;4.282;2023-04-29T10:35:36;14.50;99.90
18906;DHT22;9585;51.018;4.282;2023-04-29T10:38:10;14.80;99.90
18906;DHT22;9585;51.018;4.282;2023-04-29T10:40:44;15.10;99.90
18906;DHT22;9585;51.018;4.282;2023-04-29T10:46:42;14.90;99.90
18906;DHT22;9585;51.018;4.282;2023-04-29T10:49:15;14.60;99.90
18906;DHT22;9585;51.018;4.282;2023-04-29T10:51:44;14.50;99.90
18906;DHT22;9585;51.018;4.282;2023-04-29T10:54:15;14.30;99.90
18906;DHT22;9585;51.018;4.282;2023-04-29T10:56:46;14.40;99.90
18906;DHT22;9585;51.018;4.282;2023-04-29T10:59:43;14.50;99.90
18906;DHT22;9585;51.018;4.282;2023-04-29T11:02:51;14.20;99.90
18906;DHT22;9585;51.018;4.282;2023-04-29T11:05:34;14.10;99.90
18906;DHT22;9585;51.018;4.282;2023-04-29T11:08:09;14.00;99.90
18906;DHT22;9585;51.018;4.282;2023-04-29T11:10:39;14.10;99.90
18906;DHT22;9585;51.018;4.282;2023-04-29T11:13:24;14.20;99.90
18906;DHT22;9585;51.018;4.282;2023-04-29T11:15:52;14.30;99.90
18906;DHT22;9585;51.018;4.282;2023-04-29T11:22:02;14.20;99.90
18906;DHT22;9585;51.018;4.282;2023-04-29T11:24:53;14.00;99.90
18906;DHT22;9585;51.018;4.282;2023-04-29T11:30:09;14.00;99.90
18906;DHT22;9585;51.018;4.282;2023-04-29T11:32:38;14.10;99.90
18906;DHT22;9585;51.018;4.282;2023-04-29T11:35:11;14.20;99.90
18906;DHT22;9585;51.018;4.282;2023-04-29T11:37:42;14.30;99.90
18906;DHT22;9585;51.018;4.282;2023-04-29T11:40:11;14.30;99.90
18906;DHT22;9585;51.018;4.282;2023-04-29T11:42:42;14.20;99.90
18906;DHT22;9585;51.018;4.282;2023-04-29T11:45:10;13.90;99.90
18906;DHT22;9585;51.018;4.282;2023-04-29T11:47:42;13.90;99.90
18906;DHT22;9585;51.018;4.282;2023-04-29T11:50:11;14.10;99.90
18906;DHT22;9585;51.018;4.282;2023-04-29T11:52:46;14.20;99.90
18906;DHT22;9585;51.018;4.282;2023-04-29T11:55:14;14.40;99.90
18906;DHT22;9585;51.018;4.282;2023-04-29T11:57:48;14.50;99.90
18906;DHT22;9585;51.018;4.282;2023-04-29T12:00:16;14.80;99.90
18906;DHT22;9585;51.018;4.282;2023-04-29T12:02:44;15.20;99.90
18906;DHT22;9585;51.018;4.282;2023-04-29T12:05:13;15.70;99.90
18906;DHT22;9585;51.018;4.282;2023-04-29T12:07:43;15.90;99.90
18906;DHT22;9585;51.018;4.282;2023-04-29T12:10:15;16.00;99.90
18906;DHT22;9585;51.018;4.282;2023-04-29T12:12:57;16.00;99.90
18906;DHT22;9585;51.018;4.282;2023-04-29T12:15:34;16.20;99.90
18906;DHT22;9585;51.018;4.282;2023-04-29T12:18:02;16.30;99.90
18906;DHT22;9585;51.018;4.282;2023-04-29T12:20:33;16.20;99.90
18906;DHT22;9585;51.018;4.282;2023-04-29T12:23:12;16.00;99.90
18906;DHT22;9585;51.018;4.282;2023-04-29T12:25:48;15.90;99.90
18906;DHT22;9585;51.018;4.282;2023-04-29T12:28:25;15.80;99.90
18906;DHT22;9585;51.018;4.282;2023-04-29T12:30:53;15.60;99.90
18906;DHT22;9585;51.018;4.282;2023-04-29T12:33:22;15.50;99.90
18906;DHT22;9585;51.018;4.282;2023-04-29T12:35:57;15.40;99.90
18906;DHT22;9585;51.018;4.282;2023-04-29T12:38:29;15.60;99.90
18906;DHT22;9585;51.018;4.282;2023-04-29T12:40:58;15.80;99.90
18906;DHT22;9585;51.018;4.282;2023-04-29T12:43:27;15.80;99.90
18906;DHT22;9585;51.018;4.282;2023-04-29T12:46:05;15.50;99.90
18906;DHT22;9585;51.018;4.282;2023-04-29T12:48:40;15.80;99.90
18906;DHT22;9585;51.018;4.282;2023-04-29T12:51:11;16.00;99.90
18906;DHT22;9585;51.018;4.282;2023-04-29T12:53:40;16.20;99.90
18906;DHT22;9585;51.018;4.282;2023-04-29T12:56:11;16.20;99.90
18906;DHT22;9585;51.018;4.282;2023-04-29T13:02:11;16.40;99.90
18906;DHT22;9585;51.018;4.282;2023-04-29T13:04:42;16.70;99.90
18906;DHT22;9585;51.018;4.282;2023-04-29T13:07:28;16.80;99.90
18906;DHT22;9585;51.018;4.282;2023-04-29T13:10:02;16.60;99.90
18906;DHT22;9585;51.018;4.282;2023-04-29T13:12:44;16.70;99.90
18906;DHT22;9585;51.018;4.282;2023-04-29T13:15:28;16.90;99.90
18906;DHT22;9585;51.018;4.282;2023-04-29T13:18:04;17.10;99.90
18906;DHT22;9585;51.018;4.282;2023-04-29T13:20:35;17.10;99.90
18906;DHT22;9585;51.018;4.282;2023-04-29T13:30:17;16.70;99.90
18906;DHT22;9585;51.018;4.282;2023-04-29T13:33:36;16.40;99.90
18906;DHT22;9585;51.018;4.282;2023-04-29T13:36:17;16.40;99.90
18906;DHT22;9585;51.018;4.282;2023-04-29T13:38:51;16.00;99.90
18906;DHT22;9585;51.018;4.282;2023-04-29T13:44:48;15.80;99.90
18906;DHT22;9585;51.018;4.282;2023-04-29T13:47:26;15.70;99.90
18906;DHT22;9585;51.018;4.282;2023-04-29T13:50:02;15.60;99.90
18906;DHT22;9585;51.018;4.282;2023-04-29T13:52:34;15.50;99.90
18906;DHT22;9585;51.018;4.282;2023-04-29T13:55:18;15.30;99.90
18906;DHT22;9585;51.018;4.282;2023-04-29T13:57:55;15.30;99.90
18906;DHT22;9585;51.018;4.282;2023-04-29T14:00:49;15.10;99.90
18906;DHT22;9585;51.018;4.282;2023-04-29T14:03:24;15.00;99.90
18906;DHT22;9585;51.018;4.282;2023-04-29T14:05:54;15.20;99.90
18906;DHT22;9585;51.018;4.282;2023-04-29T14:08:25;15.40;99.90
18906;DHT22;9585;51.018;4.282;2023-04-29T14:11:15;15.50;99.90
18906;DHT22;9585;51.018;4.282;2023-04-29T14:14:05;15.70;99.90
18906;DHT22;9585;51.018;4.282;2023-04-29T14:16:38;15.80;99.90
18906;DHT22;9585;51.018;4.282;2023-04-29T14:19:08;15.90;99.90
18906;DHT22;9585;51.018;4.282;2023-04-29T14:21:36;15.70;99.90
18906;DHT22;9585;51.018;4.282;2023-04-29T14:24:09;15.70;99.90
18906;DHT22;9585;51.018;4.282;2023-04-29T14:26:46;15.40;99.90
18906;DHT22;9585;51.018;4.282;2023-04-29T14:29:14;15.60;99.90
18906;DHT22;9585;51.018;4.282;2023-04-29T14:31:49;15.70;99.90
18906;DHT22;9585;51.018;4.282;2023-04-29T14:34:20;15.80;99.90
18906;DHT22;9585;51.018;4.282;2023-04-29T14:36:48;15.80;99.90
18906;DHT22;9585;51.018;4.282;2023-04-29T14:39:28;15.80;99.90
18906;DHT22;9585;51.018;4.282;2023-04-29T14:42:07;15.80;99.90
18906;DHT22;9585;51.018;4.282;2023-04-29T14:44:51;15.50;99.90
18906;DHT22;9585;51.018;4.282;2023-04-29T14:47:34;15.70;99.90
18906;DHT22;9585;51.018;4.282;2023-04-29T14:50:19;15.90;99.90
18906;DHT22;9585;51.018;4.282;2023-04-29T14:52:53;16.00;99.90
18906;DHT22;9585;51.018;4.282;2023-04-29T14:55:32;16.20;99.90
18906;DHT22;9585;51.018;4.282;2023-04-29T14:58:06;16.30;99.90
18906;DHT22;9585;51.018;4.282;2023-04-29T15:00:39;16.30;99.90
18906;DHT22;9585;51.018;4.282;2023-04-29T15:03:13;16.40;99.90
18906;DHT22;9585;51.018;4.282;2023-04-29T15:05:45;16.40;99.90
18906;DHT22;9585;51.018;4.282;2023-04-29T15:08:14;16.30;99.90
18906;DHT22;9585;51.018;4.282;2023-04-29T15:10:58;16.30;99.90
18906;DHT22;9585;51.018;4.282;2023-04-29T15:13:33;16.30;99.90
18906;DHT22;9585;51.018;4.282;2023-04-29T15:16:06;16.30;99.90
18906;DHT22;9585;51.018;4.282;2023-04-29T15:18:35;16.30;99.90
18906;DHT22;9585;51.018;4.282;2023-04-29T15:21:15;16.30;99.90
18906;DHT22;9585;51.018;4.282;2023-04-29T15:23:44;16.20;99.90
18906;DHT22;9585;51.018;4.282;2023-04-29T15:26:15;16.20;99.90
18906;DHT22;9585;51.018;4.282;2023-04-29T15:28:45;16.10;99.90
18906;DHT22;9585;51.018;4.282;2023-04-29T15:31:14;16.00;99.90
18906;DHT22;9585;51.018;4.282;2023-04-29T15:33:43;15.90;99.90
18906;DHT22;9585;51.018;4.282;2023-04-29T15:36:22;15.70;99.90
18906;DHT22;9585;51.018;4.282;2023-04-29T15:38:56;15.50;99.90
18906;DHT22;9585;51.018;4.282;2023-04-29T15:41:34;15.40;99.90
18906;DHT22;9585;51.018;4.282;2023-04-29T15:44:02;15.40;99.90
18906;DHT22;9585;51.018;4.282;2023-04-29T15:46:30;15.50;99.90
18906;DHT22;9585;51.018;4.282;2023-04-29T15:49:04;15.50;99.90
18906;DHT22;9585;51.018;4.282;2023-04-29T15:51:35;15.60;99.90
18906;DHT22;9585;51.018;4.282;2023-04-29T15:54:16;15.70;99.90
18906;DHT22;9585;51.018;4.282;2023-04-29T15:56:56;15.80;99.90
18906;DHT22;9585;51.018;4.282;2023-04-29T15:59:33;15.80;99.90
18906;DHT22;9585;51.018;4.282;2023-04-29T16:02:01;15.80;99.90
18906;DHT22;9585;51.018;4.282;2023-04-29T16:05:00;15.80;99.90
18906;DHT22;9585;51.018;4.282;2023-04-29T16:10:57;15.80;99.90
18906;DHT22;9585;51.018;4.282;2023-04-29T16:13:24;15.80;99.90
18906;DHT22;9585;51.018;4.282;2023-04-29T16:15:54;15.60;99.90
18906;DHT22;9585;51.018;4.282;2023-04-29T16:18:24;15.40;99.90
18906;DHT22;9585;51.018;4.282;2023-04-29T16:21:00;15.50;99.90
18906;DHT22;9585;51.018;4.282;2023-04-29T16:23:40;15.50;99.90
18906;DHT22;9585;51.018;4.282;2023-04-29T16:26:39;15.50;99.90
18906;DHT22;9585;51.018;4.282;2023-04-29T16:29:18;15.60;99.90
18906;DHT22;9585;51.018;4.282;2023-04-29T16:33:01;15.60;99.90
18906;DHT22;9585;51.018;4.282;2023-04-29T16:35:30;15.50;99.90
18906;DHT22;9585;51.018;4.282;2023-04-29T16:38:03;15.50;99.90
18906;DHT22;9585;51.018;4.282;2023-04-29T16:40:36;15.50;99.90
18906;DHT22;9585;51.018;4.282;2023-04-29T16:43:06;15.60;99.90
18906;DHT22;9585;51.018;4.282;2023-04-29T16:45:41;15.50;99.90
18906;DHT22;9585;51.018;4.282;2023-04-29T16:48:16;15.50;99.90
18906;DHT22;9585;51.018;4.282;2023-04-29T16:50:44;15.50;99.90
18906;DHT22;9585;51.018;4.282;2023-04-29T16:53:15;15.70;99.90
18906;DHT22;9585;51.018;4.282;2023-04-29T16:55:43;15.80;99.90
18906;DHT22;9585;51.018;4.282;2023-04-29T16:58:24;15.60;99.90
18906;DHT22;9585;51.018;4.282;2023-04-29T17:01:01;15.50;99.90